Home > Products > Valid Products > MTR

000
SAZS31 NSTU 061852
MTRPPG
METAR NSTU 061850Z VRB02KT 10SM SCT017CB BKN037 OVC100 26/25 A2980
RMK CB ALQDS SLP093 T02610251=




000
SAZS31 NSTU 061852
MTRPPG
METAR NSTU 061850Z VRB02KT 10SM SCT017CB BKN037 OVC100 26/25 A2980
RMK CB ALQDS SLP093 T02610251=




000
SAZS31 NSTU 061754
MTRPPG
METAR NSTU 061750Z VRB05KT 12SM SCT015CB SCT037 OVC110 26/25 A2978
RMK SHRAE40 CB ALQDS SLP085 60019 8/37/ T02590249 10275 20256 52007=




000
SAZS31 NSTU 061653
MTRPPG
METAR NSTU 061650Z 00000KT 7SM -SHRA SCT016CB SCT040 OVC110 26/25
A2977 RMK CB NE-SE-SW SLP081 T02560245=




000
SAZS31 NSTU 061653
MTRPPG
METAR NSTU 061650Z 00000KT 7SM -SHRA SCT016CB SCT040 OVC110 26/25
A2977 RMK CB NE-SE-SW SLP081 T02560245=




000
SAZS31 NSTU 061551
MTRPPG
METAR NSTU 061550Z VRB04KT 7SM -SHRA SCT020TCU BKN100 26/25 A2975
RMK SHRAB45 TCU OHD SLP076 T02570247=




000
SAZS31 NSTU 061540
MTRPPG
METAR NSTU 061450Z VRB03KT 10SM SCT022 26/25 A2976 RMK SLP078 60001
8/100 T02590246 56012=




000
SAZS31 NSTU 061539
MTRPPG
METAR NSTU 061357Z VRB03KT 10SM SCT022 SCT110 26/25 A2977 RMK
SHRAE10 SLP081 T02600246=




000
SAZS31 NSTU 061359
MTRPPG
METAR NSTU 061252Z VRB02KT 6SM -SHRA SCT017TCU BKN110 27/25 A2978
RMK SHRAB30 TCU OHD SLP085 T02710247=




000
SAZS31 NSTU 061359
MTRPPG
METAR NSTU 061252Z VRB02KT 6SM -SHRA SCT017TCU BKN110 27/25 A2978
RMK SHRAB30 TCU OHD SLP085 T02710247=




000
SAZS31 NSTU 061255
MTRPPG
METAR NSTU 061252Z VRB02KT 6SM -SHRA SCT017TCU BKN110 27/25 A2978
RMK SHRAB30 TCU OHD SLP085 T02710247=




000
SAZS31 NSTU 061159
MTRPPG
METAR NSTU 061150Z 08013KT 10SM SCT017 SCT110 28/25 A2979 RMK SLP090
60000 70027 8/170 T02750249 10277 20268 57003=




000
SAZS31 NSTU 061053
MTRPPG
METAR NSTU 061051Z 09013KT 10SM SCT017 BKN110 28/25 A2980 RMK SLP091
T02770251 402780263=




000
SAZS31 NSTU 060954
MTRPPG
METAR NSTU 060952Z 09014KT 10SM SCT019TCU BKN040 BKN090 28/25 A2981
RMK SHRAB02E15 TCU NE SLP095 T02770250=




000
SAZS31 NSTU 060856
MTRPPG
METAR NSTU 060854Z 10011KT 10SM FEW020 SCT040 SCT090 27/25 A2980 RMK
SLP093 8/870 T02730249 52005=




000
SAZS31 NSTU 060752
MTRPPG
METAR NSTU 060750Z 12013KT 10SM FEW020 SCT040 SCT090 28/25 A2980 RMK
SLP093 T02750246=




000
SAZS31 NSTU 060752
MTRPPG
METAR NSTU 060750Z 12013KT 10SM FEW020 SCT040 SCT090 28/25 A2980 RMK
SLP093 T02750246=




000
SAZS31 NSTU 060652
MTRPPG
METAR NSTU 060651Z 12013KT 10SM FEW020 SCT040 27/24 A2979 RMK SLP090
T02730243=




000
SAZS31 NSTU 060608
MTRPPG
METAR NSTU 060555Z 12011KT 10SM SCT017TCU BKN040 27/24 A2979 RMK TCU
N SLP088 8/800 T02680238 10268 20263 52012=




000
SAZS31 NSTU 060608
MTRPPG
METAR NSTU 060555Z 12011KT 10SM SCT017TCU BKN040 27/24 A2979 RMK TCU
N SLP088 8/800 T02680238 10268 20263 52012=




000
SAZS31 NSTU 060453
MTRPPG
METAR NSTU 060452Z 13011KT 11SM SCT014TCU BKN040 OVC090 27/25 A2978
RMK TCU W-N-NE SLP083 T02680245=




000
SAZS31 NSTU 060351
MTRPPG
METAR NSTU 060351Z 13007KT 11SM FEW023 SCT040 OVC100 27/25 A2977 RMK
SLP081 T02680245=




000
SAZS31 NSTU 060300
MTRPPG
METAR NSTU 060250Z VRB05KT 10SM FEW023 BKN040 OVC100 27/24 A2975 RMK
SLP076 60003 8/82/ T02660244 57027=





000
SAZS31 NSTU 060300
MTRPPG
METAR NSTU 060155Z VRB04KT 10SM FEW023 BKN040 OVC100 27/24 A2975 RMK
SLP076 60003 8/82/ T02660244 57027=





000
SAZS31 NSTU 060300
MTRPPG
METAR NSTU 060250Z VRB05KT 10SM FEW023 BKN040 OVC100 27/24 A2975 RMK
SLP076 60003 8/82/ T02660244 57027=





000
SAZS31 NSTU 060205
MTRPPG
METAR NSTU 060155Z VRB04KT 10SM SCT018TCU BKN030
OVC080 27/25 A2977 RMK SHRAE20 TCU ALQDS
SLP083 T02650245=





000
SAZS31 NSTU 060205
MTRPPG
METAR NSTU 060155Z VRB04KT 10SM SCT018TCU BKN030
OVC080 27/25 A2977 RMK SHRAE20 TCU ALQDS
SLP083 T02650245=




000
SAZS31 NSTU 060205
MTRPPG
METAR NSTU 060155Z VRB04KT 10SM SCT018TCU BKN030
OVC080 27/25 A2977 RMK SHRAE20 TCU ALQDS
SLP083 T02650245=





000
SAZS31 NSTU 060205
MTRPPG
METAR NSTU 060155Z VRB04KT 10SM SCT018TCU BKN030
OVC080 27/25 A2977 RMK SHRAE20 TCU ALQDS
SLP083 T02650245=




000
SAZS31 NSTU 060117
MTRPPG
METAR NSTU 060050Z 16011KT 10SM -SHRA FEW005 BKN015CB
OVC040 26/25 A2982 RMK CB W-N-NE SLP100 T02530247=




000
SAZS31 NSTU 060117
MTRPPG
METAR NSTU 060050Z 16011KT 10SM -SHRA FEW005 BKN015CB
OVC040 26/25 A2982 RMK CB W-N-NE SLP100 T02530247=





000
SAZS31 NSTU 060117
MTRPPG
METAR NSTU 060050Z 16011KT 10SM -SHRA FEW005 BKN015CB
OVC040 26/25 A2982 RMK CB W-N-NE SLP100 T02530247=




000
SAZS31 NSTU 060012
MTRPPG
METAR NSTU 052350Z 16012KT 10SM -SHRA SCT016TCU BKN040
OVC080 26/25 A2983 RMK TCU ALQDS SLP103 60024
8/81/ T02640249 10275 20263 57014=





000
SAZS31 NSTU 060012
MTRPPG
METAR NSTU 052350Z 16012KT 10SM -SHRA SCT016TCU BKN040
OVC080 26/25 A2983 RMK TCU ALQDS SLP103 60024
8/81/ T02640249 10275 20263 57014=





000
SAZS31 NSTU 060012
MTRPPG
METAR NSTU 052350Z 16012KT 10SM -SHRA SCT016TCU BKN040
OVC080 26/25 A2983 RMK TCU ALQDS SLP103 60024
8/81/ T02640249 10275 20263 57014=




000
SAZS31 NSTU 060012
MTRPPG
METAR NSTU 052350Z 16012KT 10SM -SHRA SCT016TCU BKN040
OVC080 26/25 A2983 RMK TCU ALQDS SLP103 60024
8/81/ T02640249 10275 20263 57014=




000
SAZS31 NSTU 052311
MTRPPG
METAR NSTU 052250Z 14008KT 10SM -SHRA SCT016CB BKN040
OVC080 26/25 A2986 RMK CB W-N-NE SLP112 T02630249=





000
SAZS31 NSTU 052311
MTRPPG
METAR NSTU 052250Z 14008KT 10SM -SHRA SCT016CB BKN040
OVC080 26/25 A2986 RMK CB W-N-NE SLP112 T02630249=




000
SAZS31 NSTU 052237
MTRPPG
METAR NSTU 052151Z 15010KT 11SM -SHRA SCT018CB BKN040
OVC080 27/25 A2988 RMK SHRAB15 CB N-NE AND
SE-S-SW SLP120 T02670250=




000
SAZS31 NSTU 052237
MTRPPG
METAR NSTU 052151Z 15010KT 11SM -SHRA SCT018CB BKN040
OVC080 27/25 A2988 RMK SHRAB15 CB N-NE AND
SE-S-SW SLP120 T02670250=





000
SAZS31 NSTU 052237
MTRPPG
METAR NSTU 052151Z 15010KT 11SM -SHRA SCT018CB BKN040
OVC080 27/25 A2988 RMK SHRAB15 CB N-NE AND
SE-S-SW SLP120 T02670250=




000
SAZS31 NSTU 052237
MTRPPG
METAR NSTU 052151Z 15010KT 11SM -SHRA SCT018CB BKN040
OVC080 27/25 A2988 RMK SHRAB15 CB N-NE AND
SE-S-SW SLP120 T02670250=





000
SAZS31 NSTU 052235
MTRPPG
METAR NSTU 052053Z VRB03KT 12SM SCT022TCU BKN040 OVC100
27/24 A2987 RMK TCU W-N SLP117 8/82/ T02730243 52015=





000
SAZS31 NSTU 052235
MTRPPG
METAR NSTU 052053Z VRB03KT 12SM SCT022TCU BKN040 OVC100
27/24 A2987 RMK TCU W-N SLP117 8/82/ T02730243 52015=




000
SAZS31 NSTU 052233
MTRPPG
METAR NSTU 051952Z 00000KT 12SM SCT022 BKN040 0VC090
28/24 A2986 RMK SLP112 T02750244=





000
SAZS31 NSTU 052233
MTRPPG
METAR NSTU 051952Z 00000KT 12SM SCT022 BKN040 0VC090
28/24 A2986 RMK SLP112 T02750244=




000
SAZS31 NSTU 052233
MTRPPG
METAR NSTU 051952Z 00000KT 12SM SCT022 BKN040 0VC090
28/24 A2986 RMK SLP112 T02750244=





000
SAZS31 NSTU 052227
MTRPPG
METAR NSTU 051852Z 00000KT 12SM SCT022TCU BKN040
OVC100 27/24 A2984 RMK TCU W-N-NE SLP105 T02670239=




000
SAZS31 NSTU 052227
MTRPPG
METAR NSTU 051852Z 00000KT 12SM SCT022TCU BKN040
OVC100 27/24 A2984 RMK TCU W-N-NE SLP105 T02670239=





000
SAZS31 NSTU 052227
MTRPPG
METAR NSTU 051852Z 00000KT 12SM SCT022TCU BKN040
OVC100 27/24 A2984 RMK TCU W-N-NE SLP105 T02670239=




000
SAZS31 NSTU 052227
MTRPPG
METAR NSTU 051852Z 00000KT 12SM SCT022TCU BKN040
OVC100 27/24 A2984 RMK TCU W-N-NE SLP105 T02670239=





000
SAZS31 NSTU 052218
MTRPPG
METAR NSTU 051750Z 00000KT 12SM SCT019 BKN040
OVC100 27/25 A2983 RMK SLP102 T02660246 10276 20263
51015=




000
SAZS31 NSTU 052218
MTRPPG
METAR NSTU 051750Z 00000KT 12SM SCT019 BKN040
OVC100 27/25 A2983 RMK SLP102 T02660246 10276 20263
51015=





000
SAZS31 NSTU 052218
MTRPPG
METAR NSTU 051750Z 00000KT 12SM SCT019 BKN040
OVC100 27/25 A2983 RMK SLP102 T02660246 10276 20263
51015=




000
SAZS31 NSTU 052218
MTRPPG
METAR NSTU 051750Z 00000KT 12SM SCT019 BKN040
OVC100 27/25 A2983 RMK SLP102 T02660246 10276 20263
51015=





000
SAZS31 NSTU 051811
MTRPPG
METAR NSTU 051750Z 00000KT 12SM SCT019 BKN040 OVC100 27/25 A2983 RMK
SLP102 8/87/ T02660246 10276 20263 51015=




000
SAZS31 NSTU 051651
MTRPPG
METAR NSTU 051650Z VRB02KT 10SM SCT021 BKN040 OVC100 26/25 A2980 RMK
SLP093 T02640252=




000
SAZS31 NSTU 051557
MTRPPG
METAR NSTU 051557Z VRB03KT 10SM SCT018 OVC100 26/25 A2978 RMK SLP085
T02630250=




000
SAZS31 NSTU 051504
MTRPPG
METAR NSTU 051458Z VRB02KT 10SM SCT018 BKN110 26/25 A2978 RMK SLP086
8/170 T02640249 57007=




000
SAZS31 NSTU 051406
MTRPPG
METAR NSTU 051356Z VRB02KT 10SM SCT022 SCT110 27/25 A2978 RMK SLP086
T02680249=




000
SAZS31 NSTU 051254
MTRPPG
METAR NSTU 051252Z VRB02KT 10SM SCT022 SCT110 27/25 A2979 RMK SLP088
T02690245=




000
SAZS31 NSTU 051254
MTRPPG
METAR NSTU 051252Z VRB02KT 10SM SCT022 SCT110 27/25 A2979 RMK SLP088
T02690245=




000
SAZS31 NSTU 051153
MTRPPG
METAR NSTU 051150Z 07009KT 10SM SCT018TCU SCT110 28/25 A2980 RMK TCU
NW-NE-E SLP093 60000 70010 8/270 T02760250 10282 20273 52003=




000
SAZS31 NSTU 051153
MTRPPG
METAR NSTU 051150Z 07009KT 10SM SCT018TCU SCT110 28/25 A2980 RMK TCU
NW-NE-E SLP093 60000 70010 8/270 T02760250 10282 20273 52003=




000
SAZS31 NSTU 051144
MTRPPG
METAR NSTU 051054Z 09010KT 10SM SCT018TCU SCT110 28/25 A2981 RMK
TCU NW SLP095 T02780252 403050254=




000
SAZS31 NSTU 051056
MTRPPG
METAR NSTU 051054Z 09010KT 10SM SCT018TCU SCT110 28/25 A2981 RMK
SLP095 T02780252 403050254=




000
SAZS31 NSTU 051056
MTRPPG
METAR NSTU 051054Z 09010KT 10SM SCT018TCU SCT110 28/25 A2981 RMK
SLP095 T02780252 403050254=




000
SAZS31 NSTU 051005
MTRPPG
METAR NSTU 050952Z 10014KT 11SM SCT018TCU BKN040 28/25 A2980 RMK
SHRAE30 TCU NW-NE SLP093 T02800254=





000
SAZS31 NSTU 051005
MTRPPG
METAR NSTU 050952Z 10014KT 11SM SCT018TCU BKN040 28/25 A2980 RMK
SHRAE30 TCU NW-NE SLP093 T02800254=





000
SAZS31 NSTU 050900
MTRPPG
METAR NSTU 050851Z VRB03KT 11SM -SHRA SCT018TCU BKN034 27/25 A2979
RMK SHRAB24 TCU ALQDS SLP090 60000 8/800 T02740253 51010=




000
SAZS31 NSTU 050900
MTRPPG
METAR NSTU 050851Z VRB03KT 11SM -SHRA SCT018TCU BKN034 27/25 A2979
RMK SHRAB24 TCU ALQDS SLP090 60000 8/800 T02740253 51010=




000
SAZS31 NSTU 050754
MTRPPG
METAR NSTU 050752Z 04007KT 11SM SCT020TCU BKN036 28/25 A2979 RMK TCU
ALQDS SLP090 T02820248=




000
SAZS31 NSTU 050754
MTRPPG
METAR NSTU 050752Z 04007KT 11SM SCT020TCU BKN036 28/25 A2979 RMK TCU
ALQDS SLP090 T02820248=




000
SAZS31 NSTU 050654
MTRPPG
METAR NSTU 050651Z VRB02KT 11SM SCT019TCU BKN035 27/25 A2978 RMK
SHRAE45 TCU ALQDS SLP085 T02730249=




000
SAZS31 NSTU 050654
MTRPPG
METAR NSTU 050651Z VRB02KT 11SM SCT019TCU BKN035 27/25 A2978 RMK
SHRAE45 TCU ALQDS SLP085 T02730249=




000
SAZS31 NSTU 050559
MTRPPG
METAR NSTU 050551Z 10008KT 11SM -SHRA FEW014 BKN019TCU BKN035 28/25
A2976 RMK TCU ALQDS SLP080 60000 8/200 T02810246 10305 20272 53012=




000
SAZS31 NSTU 050500
MTRPPG
METAR NSTU 050453Z VRB04KT 12SM -SHRA FEW013 BKN019TCU BKN035 27/25
A2975 RMK TCU W-NW AND NE-E-SE-S-SW SLP076 T02730246=




000
SAZS31 NSTU 050356
MTRPPG
METAR NSTU 050350Z 05014G22KT 12SM -SHRA FEW009 SCT019TCU BKN035
BKN090 27/24 A2974 RMK SHRAB41 TCU ALQDS SLP071 T02720238=




000
SAZS31 NSTU 050355
MTRPPG
METAR NSTU 050252Z 09013KT 12SM SCT019TCU BKN025 29/26 A2973 RMK TCU
ALQDS SLP068 8/800 T02940256 58012=




000
SAZS31 NSTU 050158
MTRPPG
METAR NSTU 050151Z 10011KT 12SM SCT019 SCT040 BKN100 31/26 A2973 RMK
SLP069 T03050260=




000
SAZS31 NSTU 050158
MTRPPG
METAR NSTU 050151Z 10011KT 12SM SCT019 SCT040 BKN100 31/26 A2973 RMK
SLP069 T03050260=




000
SAZS31 NSTU 050153
MTRPPG
METAR NSTU 050151Z 10011KT 12SM SCT019 SCT040 BKN100 31/26 A2973 RMK
SLP069 T03050260=




000
SAZS31 NSTU 050053
MTRPPG
METAR NSTU 050052Z 09010KT 12SM SCT019 BKN040 BKN100 30/26 A2975 RMK
SLP075 T03020263=




000
SAZS31 NSTU 050053
MTRPPG
METAR NSTU 050052Z 09010KT 12SM SCT019 BKN040 BKN100 30/26 A2975 RMK
SLP075 T03020263=




000
SAZS31 NSTU 042354
MTRPPG
METAR NSTU 042350Z 10011KT 12SM SCT019 BKN040 BKN100 30/26 A2976 RMK
SLP080 60000 8/830 T03020264 10302 20265 57019=




000
SAZS31 NSTU 042354
MTRPPG
METAR NSTU 042350Z 10011KT 12SM SCT019 BKN040 BKN100 30/26 A2976 RMK
SLP080 60000 8/830 T03020264 10302 20265 57019=




000
SAZS31 NSTU 042300
MTRPPG
METAR NSTU 042253Z 08013KT 12SM SCT018TCU BKN040 BKN100 30/26 A2979
RMK TCU NE AND SW SLP088 T02960260=




000
SAZS31 NSTU 042300
MTRPPG
METAR NSTU 042253Z 08013KT 12SM SCT018TCU BKN040 BKN100 30/26 A2979
RMK TCU NE AND SW SLP088 T02960260=




000
SAZS31 NSTU 042200
MTRPPG
METAR NSTU 042159Z 04006KT 11SM SCT018TCU BKN040 BKN100 29/25 A2981
RMK TCU W-N-NE SLP095 T02880253=




000
SAZS31 NSTU 042109
MTRPPG
METAR NSTU 042050Z 11015KT 10SM SCT018TCU BKN040 BKN100 29/26 A2982
RMK TCU NW-N-NE SLP098 8/840 T02910259 52010=




000
SAZS31 NSTU 041952
MTRPPG
METAR NSTU 041950Z 09010KT 12SM SCT018TCU BKN040 BKN100 29/26 A2981
RMK TCU NW-N-NE AND S-SW SLP095 T02890257=




000
SAZS31 NSTU 041858
MTRPPG
METAR NSTU 041855Z 07010KT 12SM SCT018TCU SCT040 BKN100 BKN180 28/26
A2979 RMK TCU W-N-NE SLP090 T02820257=




000
SAZS31 NSTU 041858
MTRPPG
METAR NSTU 041855Z 07010KT 12SM SCT018TCU SCT040 BKN100 BKN180 28/26
A2979 RMK TCU W-N-NE SLP090 T02820257=




000
SAZS31 NSTU 041754
MTRPPG
METAR NSTU 041752Z 09010KT 10SM SCT015CB SCT040 BKN100 27/25 A2979
RMK SHRAE15 CB ALQDS SLP088 60010 8/320 T02650245 10271 20254 52003=




000
SAZS31 NSTU 041754
MTRPPG
METAR NSTU 041752Z 09010KT 10SM SCT015CB SCT040 BKN100 27/25 A2979
RMK SHRAE15 CB ALQDS SLP088 60010 8/320 T02650245 10271 20254 52003=




000
SAZS31 NSTU 041652
MTRPPG
METAR NSTU 041650Z 05007KT 7SM -SHRA SCT015CB SCT040 OVC100 26/25
A2977 RMK CB ALQDS SLP083 T02610247=




000
SAZS31 NSTU 041652
MTRPPG
METAR NSTU 041650Z 05007KT 7SM -SHRA SCT015CB SCT040 OVC100 26/25
A2977 RMK CB ALQDS SLP083 T02610247=




000
SAZS31 NSTU 041559
MTRPPG
METAR NSTU 041557Z 10012KT 7SM -SHRA SCT015CB BKN040 OVC090 27/25
A2978 RMK CB ALQDS SLP085 T02700253=




000
SAZS31 NSTU 041559
MTRPPG
METAR NSTU 041557Z 10012KT 7SM -SHRA SCT015CB BKN040 OVC090 27/25
A2978 RMK CB ALQDS SLP085 T02700253=




000
SAZS31 NSTU 041457
MTRPPG
METAR NSTU 041454Z 08010KT 5SM -SHRA BKN016 BKN040 OVC090 26/25
A2978 RMK SLP085 60008 8/82/ T02620248 57008=




000
SAZS31 NSTU 041251
MTRPPG
METAR NSTU 041250Z VRB05KT 5SM -SHRA FEW007 BKN016 OVC040 25/24
A2979 RMK TSE05 SLP088 T02540242=




000
SAZS31 NSTU 041153
MTRPPG
METAR NSTU 041150Z 07014KT 1SM TS +SHRA BKN014CB OVC038 26/25 A2982
RMK OCNL LTGIC NW-NE TSB05 CB ALQDS SLP100 60079 70130 8/3//
T02580248 10279 20256 57005=




000
SAZS31 NSTU 041153
MTRPPG
METAR NSTU 041150Z 07014KT 1SM TS +SHRA BKN014CB OVC038 26/25 A2982
RMK OCNL LTGIC NW-NE TSB05 CB ALQDS SLP100 60079 70130 8/3//
T02580248 10279 20256 57005=




000
SAZS31 NSTU 041057
MTRPPG
METAR NSTU 041053Z 01004KT 2SM SHRA BKN014CB OVC038 26/24 A2982 RMK
SHRAB00 CB ALQDS SLP098 T02560244 403080256=




000
SAZS31 NSTU 041057
MTRPPG
METAR NSTU 041053Z 01004KT 2SM SHRA BKN014CB OVC038 26/24 A2982 RMK
SHRAB00 CB ALQDS SLP098 T02560244 403080256=




000
SAZS31 NSTU 040956
MTRPPG
METAR NSTU 040952Z 04010KT 9SM BKN015CB OVC040 26/24 A2983 RMK CB
ALQDS SLP103 T02570237=




000
SAZS31 NSTU 040852
MTRPPG
METAR NSTU 040850Z 13011KT 10SM SCT019TCU OVC040 27/25 A2984 RMK TCU
 ALQDS SLP105 8/8// T02710249 52017=




000
SAZS31 NSTU 040756
MTRPPG
METAR NSTU 040755Z 15013KT 10SM BKN019TCU BKN040 28/25 A2983 RMK TCU
 ALQDS SLP103 T02790252=




000
SAZS31 NSTU 040657
MTRPPG
METAR NSTU 040655Z 13011KT 10SM SCT016TCU BKN090 28/25 A2981 RMK TCU
 ALQDS SLP097 T02780254=




000
SAZS31 NSTU 040657
MTRPPG
METAR NSTU 040655Z 13011KT 10SM SCT016TCU BKN090 28/25 A2981 RMK TCU
 ALQDS SLP097 T02780254=




000
SAZS31 NSTU 040601
MTRPPG
METAR NSTU 040555Z 13012KT 10SM SCT016TCU BKN090 28/25 A2979 RMK TCU
 ALQDS SLP088 8/220 T02780254 10308 20278 52010=




000
SAZS31 NSTU 040601
MTRPPG
METAR NSTU 040555Z 13012KT 10SM SCT016TCU BKN090 28/25 A2979 RMK TCU
 ALQDS SLP088 8/220 T02780254 10308 20278 52010=




000
SAZS31 NSTU 040453
MTRPPG
METAR NSTU 040452Z 14010KT 12SM SCT016TCU BKN090 28/25 A2976 RMK TCU
 ALQDS SLP080 T02780254=




000
SAZS31 NSTU 040352
MTRPPG
METAR NSTU 040350Z 13010KT 12SM SCT018TCU SCT035 BKN090 29/25 A2976
RMK TCU S-W-N SLP078 T02890254=




000
SAZS31 NSTU 040255
MTRPPG
METAR NSTU 040252Z 11010KT 12SM SCT018TCU BKN035 BKN080 28/25 A2976
RMK TCU ALQDS SLP078 8/870 T02830250 57010=




000
SAZS31 NSTU 040153
MTRPPG
METAR NSTU 040150Z 13008G17KT 12SM SCT018TCU BKN035 BKN080 29/26
A2976 RMK TCU NW-N-NE SLP078 T02850258=




000
SAZS31 NSTU 040056
MTRPPG
METAR NSTU 040054Z 10008KT 12SM SCT018CB BKN035 BKN080 29/26 A2978
RMK CB SE AND NW-N SLP086 T02920257=




000
SAZS31 NSTU 040056
MTRPPG
METAR NSTU 040054Z 10008KT 12SM SCT018CB BKN035 BKN080 29/26 A2978
RMK CB SE AND NW-N SLP086 T02920257=




000
SAZS31 NSTU 032356
MTRPPG
METAR NSTU 032351Z 09011KT 12SM SCT015TCU BKN035 BKN080 31/26 A2979
RMK TCU SE-S-SW AND NW SLP088 60049 8/460 T03080264 10308 20265
57024=




000
SAZS31 NSTU 032356
MTRPPG
METAR NSTU 032351Z 09011KT 12SM SCT015TCU BKN035 BKN080 31/26 A2979
RMK TCU SE-S-SW AND NW SLP088 60049 8/460 T03080264 10308 20265
57024=




000
SAZS31 NSTU 032256
MTRPPG
METAR NSTU 032252Z 09015KT 11SM SCT015TCU BKN035 BKN100 30/27 A2981
RMK SHRAE30 TCU W-N-NE SLP097 T03000266=




000
SAZS31 NSTU 032256
MTRPPG
METAR NSTU 032252Z 09015KT 11SM SCT015TCU BKN035 BKN100 30/27 A2981
RMK SHRAE30 TCU W-N-NE SLP097 T03000266=




000
SAZS31 NSTU 032153
MTRPPG
METAR NSTU 032150Z 06013KT 3SM -SHRA FEW005 BKN015CB OVC040 27/25
A2985 RMK SHRAB13 CB ALQDS SLP108 T02650250=




000
SAZS31 NSTU 032102
MTRPPG
METAR NSTU 032052Z 11019G24KT 12SM SCT014CB BKN035 BKN100 29/26
A2986 RMK SHRAB11E45 CB SE-SW VCSH S SLP112 60001 8/370 T02930261
51015=




000
SAZS31 NSTU 032102
MTRPPG
METAR NSTU 032052Z 11019G24KT 12SM SCT014CB BKN035 BKN100 29/26
A2986 RMK SHRAB11E45 CB SE-SW VCSH S SLP112 60001 8/370 T02930261
51015=




000
SAZS31 NSTU 031957
MTRPPG
METAR NSTU 031954Z 10013KT 12SM SCT016TCU BKN035 BKN100 29/26 A2984
RMK TCU ALQDS SLP107 T02900256=




    US Dept of Commerce
    National Oceanic and Atmospheric Administration
    National Weather Service
    1325 East West Highway
    Silver Spring, MD 20910
    Page Author: NWS Internet Services Team
Disclaimer
Information Quality
Credits
Glossary
Privacy Policy
Freedom of Information Act (FOIA)
About Us
Career Opportunities